createdAt,value
2019-04-16T00:03:56.349Z,57.3
2019-04-16T00:08:54.108Z,57.5
2019-04-16T00:13:49.230Z,57.6
2019-04-16T00:23:42.376Z,57.9
2019-04-16T00:28:38.639Z,57.9
2019-04-16T00:33:35.114Z,57.9
2019-04-16T00:38:40.302Z,57.8
2019-04-16T00:43:28.141Z,58.3
2019-04-16T00:48:24.466Z,58.1
2019-04-16T00:53:21.051Z,58.1
2019-04-16T00:58:19.679Z,58.2
2019-04-16T01:03:13.989Z,57.9
2019-04-16T01:08:10.879Z,57.7
2019-04-16T01:13:07.338Z,57.4
2019-04-16T01:18:04.511Z,57.4
2019-04-16T01:23:00.139Z,57.4
2019-04-16T01:27:59.608Z,57.2
2019-04-16T01:32:53.184Z,57.1
2019-04-16T01:37:49.252Z,57.2
2019-04-16T01:42:45.424Z,56.9
2019-04-16T01:47:41.962Z,56.9
2019-04-16T01:52:38.334Z,56.9
2019-04-16T01:57:34.708Z,55.9
2019-04-16T02:02:31.239Z,55.4
2019-04-16T02:07:28.543Z,54.9
2019-04-16T02:12:23.942Z,55.1
2019-04-16T02:17:20.247Z,54.8
2019-04-16T02:22:16.742Z,54.8
2019-04-16T02:27:13.185Z,54.4
2019-04-16T02:32:09.883Z,54.5
2019-04-16T02:37:06.620Z,54.5
2019-04-16T02:42:02.862Z,53.9
2019-04-16T02:47:04.516Z,53.3
2019-04-16T02:51:55.617Z,53.4
2019-04-16T02:56:53.078Z,53.9
2019-04-16T03:01:49.316Z,53.2
2019-04-16T03:06:45.135Z,53.8
2019-04-16T03:11:41.755Z,53.6
2019-04-16T03:16:38.744Z,53.4
2019-04-16T03:21:34.084Z,53.8
2019-04-16T03:26:30.390Z,53.3
2019-04-16T03:31:26.803Z,53.9
2019-04-16T03:36:22.788Z,54.1
2019-04-16T03:41:19.239Z,54.3
2019-04-16T03:51:12.117Z,53.7
2019-04-16T03:56:08.419Z,54
2019-04-16T04:01:05.067Z,53.7
2019-04-16T04:06:03.462Z,54.1
2019-04-16T04:10:57.727Z,54
2019-04-16T04:15:55.273Z,54.2
2019-04-16T04:20:51.042Z,53.9
2019-04-16T04:25:47.381Z,53
2019-04-16T04:30:43.968Z,53.7
2019-04-16T04:35:40.409Z,52.7
2019-04-16T04:40:44.083Z,52.8
2019-04-16T04:45:33.774Z,52.8
2019-04-16T04:50:32.334Z,52.5
2019-04-16T04:55:27.048Z,52.5
2019-04-16T05:00:23.269Z,52.4
2019-04-16T05:05:23.997Z,52.6
2019-04-16T05:10:16.360Z,52.6
2019-04-16T05:15:12.531Z,52.9
2019-04-16T05:20:08.619Z,52.1
2019-04-16T05:25:04.897Z,52.5
2019-04-16T05:30:01.238Z,53
2019-04-16T05:34:57.555Z,52.7
2019-04-16T05:39:58.538Z,52.6
2019-04-16T05:44:50.045Z,52.7
2019-04-16T05:49:46.626Z,52.3
2019-04-16T05:54:44.286Z,52.8
2019-04-16T05:59:39.468Z,52.4
2019-04-16T06:04:36.393Z,52.7
2019-04-16T06:14:29.167Z,52.9
2019-04-16T06:19:25.728Z,52.8
2019-04-16T06:24:22.491Z,52.7
2019-04-16T06:29:19.094Z,52.5
2019-04-16T06:34:15.896Z,52.9
2019-04-16T06:39:12.056Z,52.5
2019-04-16T06:44:08.422Z,52.2
2019-04-16T06:49:04.960Z,52.5
2019-04-16T06:54:01.352Z,52.1
2019-04-16T06:58:58.182Z,52
2019-04-16T07:03:58.186Z,52.1
2019-04-16T07:08:50.801Z,51.9
2019-04-16T07:13:46.884Z,51.9
2019-04-16T07:18:43.359Z,52.2
2019-04-16T07:23:40.010Z,51.6
2019-04-16T07:28:36.432Z,51.7
2019-04-16T07:33:32.722Z,52.1
2019-04-16T07:38:29.294Z,52.1
2019-04-16T07:43:30.894Z,51.8
2019-04-16T07:48:23.042Z,52.1
2019-04-16T07:53:19.059Z,52.2
2019-04-16T07:58:15.413Z,52.2
2019-04-16T08:03:11.760Z,52
2019-04-16T08:08:07.588Z,51.9
2019-04-16T08:13:03.983Z,51.5
2019-04-16T08:18:00.703Z,50.9
2019-04-16T08:22:57.555Z,50.6
2019-04-16T08:27:54.797Z,50.2
2019-04-16T08:32:50.976Z,50.2
2019-04-16T08:37:49.001Z,50.4
2019-04-16T08:42:44.988Z,50.6
2019-04-16T08:47:44.284Z,50
2019-04-16T08:52:38.496Z,49.6
2019-04-16T08:57:33.564Z,49.3
2019-04-16T09:02:29.978Z,49.3
2019-04-16T09:07:26.661Z,49.2
2019-04-16T09:12:23.363Z,48.8
2019-04-16T09:17:19.696Z,47.9
2019-04-16T09:22:17.103Z,47.7
2019-04-16T09:27:13.582Z,47.8
2019-04-16T09:32:09.135Z,47.8
2019-04-16T09:37:05.915Z,47.5
2019-04-16T09:42:02.156Z,47.2
2019-04-16T09:46:59.707Z,46.8
2019-04-16T09:51:55.753Z,45.1
2019-04-16T09:56:52.533Z,44.6
2019-04-16T10:01:49.078Z,43.4
2019-04-16T10:06:45.842Z,42.5
2019-04-16T10:11:42.589Z,42.5
2019-04-16T10:16:39.235Z,42.4
2019-04-16T10:21:35.820Z,43.9
2019-04-16T10:26:32.614Z,48
2019-04-16T10:31:29.104Z,46
2019-04-16T10:36:25.541Z,44.7
2019-04-16T10:41:21.916Z,45.6
2019-04-16T10:46:18.550Z,45.1
2019-04-16T10:51:15.491Z,43.7
2019-04-16T10:56:11.013Z,44.2
2019-04-16T11:01:07.833Z,43.4
2019-04-16T11:06:04.448Z,42.8
2019-04-16T11:11:00.796Z,42.4
2019-04-16T11:15:56.970Z,42.8
2019-04-16T11:20:53.236Z,44.4
2019-04-16T11:25:49.368Z,49.3
2019-04-16T11:30:48.601Z,54.6
2019-04-16T11:35:41.758Z,56.5
2019-04-16T11:40:40.911Z,58
2019-04-16T11:45:35.190Z,57.4
2019-04-16T11:50:31.349Z,57.4
2019-04-16T11:55:27.610Z,58.2
2019-04-16T12:00:24.129Z,58.3
2019-04-16T12:05:20.651Z,54.7
2019-04-16T12:10:17.304Z,53.7
2019-04-16T12:15:14.008Z,54.2
2019-04-16T12:20:10.687Z,53.6
2019-04-16T12:25:06.795Z,51.4
2019-04-16T12:30:03.595Z,51.2
2019-04-16T12:35:00.158Z,49.3
2019-04-16T12:44:53.377Z,48.7
2019-04-16T12:49:50.063Z,49.5
2019-04-16T12:54:46.261Z,53.6
2019-04-16T12:59:42.940Z,54.6
2019-04-16T13:04:39.267Z,55
2019-04-16T13:09:36.544Z,54.9
2019-04-16T13:14:33.427Z,54.8
2019-04-16T13:19:29.739Z,51.7
2019-04-16T13:24:27.229Z,51.4
2019-04-16T13:29:28.883Z,51.7
2019-04-16T13:34:20.603Z,47.3
2019-04-16T13:39:17.242Z,47.4
2019-04-16T13:44:16.889Z,46.8
2019-04-16T13:49:10.538Z,46.8
2019-04-16T13:54:06.998Z,47.9
2019-04-16T13:59:03.559Z,48.4
2019-04-16T14:04:00.142Z,47.8
2019-04-16T14:08:56.685Z,47.4
2019-04-16T14:13:53.850Z,44.3
2019-04-16T14:18:50.899Z,44.3
2019-04-16T14:23:47.211Z,45.4
2019-04-16T14:28:51.733Z,43.9
2019-04-16T14:33:40.996Z,46.3
2019-04-16T14:38:37.355Z,47.5
2019-04-16T14:43:33.953Z,49
2019-04-16T14:48:30.841Z,48.3
2019-04-16T14:53:27.563Z,48.4
2019-04-16T14:58:24.940Z,47.6
2019-04-16T15:03:21.785Z,47.5
2019-04-16T15:08:18.971Z,48
2019-04-16T15:13:15.466Z,46.6
2019-04-16T15:18:12.564Z,44.5
2019-04-16T15:23:08.662Z,44.7
2019-04-16T15:28:05.775Z,43.7
2019-04-16T15:33:04.903Z,43.5
2019-04-16T15:37:59.272Z,42.8
2019-04-16T15:42:55.576Z,42.8
2019-04-16T15:47:52.035Z,43.4
2019-04-16T15:52:48.957Z,44
2019-04-16T15:57:45.561Z,43.9
2019-04-16T16:02:45.300Z,43
2019-04-16T16:07:39.030Z,42.8
2019-04-16T16:12:35.664Z,41.5
2019-04-16T16:17:31.801Z,41.7
2019-04-16T16:22:28.560Z,41.1
2019-04-16T16:27:25.077Z,41.9
2019-04-16T16:32:22.265Z,44
2019-04-16T16:37:18.619Z,45.1
2019-04-16T16:42:15.318Z,45
2019-04-16T16:47:11.868Z,43.9
2019-04-16T16:52:08.561Z,44
2019-04-16T16:57:08.113Z,43.8
2019-04-16T17:02:01.705Z,43.6
2019-04-16T17:06:58.957Z,43.5
2019-04-16T17:11:56.010Z,43.5
2019-04-16T17:16:51.412Z,43
2019-04-16T17:21:47.995Z,43.2
2019-04-16T17:26:46.878Z,43.2
2019-04-16T17:31:41.638Z,43.4
2019-04-16T17:36:38.667Z,44
2019-04-16T17:41:35.204Z,44.3
2019-04-16T17:46:32.299Z,44.4
2019-04-16T17:51:28.862Z,44.3
2019-04-16T17:56:25.581Z,44.7
2019-04-16T18:01:21.939Z,44.5
2019-04-16T18:06:18.604Z,44.9
2019-04-16T18:11:15.028Z,45.8
2019-04-16T18:16:11.728Z,46.2
2019-04-16T18:21:08.242Z,47
2019-04-16T18:26:04.883Z,46.8
2019-04-16T18:31:01.926Z,46.4
2019-04-16T18:36:01.299Z,45.4
2019-04-16T18:40:55.240Z,44.5
2019-04-16T18:45:51.995Z,44
2019-04-16T18:50:47.806Z,43.5
2019-04-16T18:55:44.050Z,42.8
2019-04-16T19:00:40.933Z,43
2019-04-16T19:05:34.828Z,41.8
2019-04-16T19:10:31.749Z,42.4
2019-04-16T19:15:28.897Z,42.9
2019-04-16T19:20:25.632Z,43.2
2019-04-16T19:25:23.259Z,43.2
2019-04-16T19:30:22.627Z,42.9
2019-04-16T19:35:19.222Z,42.6
2019-04-16T19:40:15.553Z,42
2019-04-16T19:45:11.952Z,41.8
2019-04-16T19:50:07.016Z,41.4
2019-04-16T19:55:03.629Z,41.8
2019-04-16T20:00:00.293Z,41.5
2019-04-16T20:04:57.425Z,39.8
2019-04-16T20:09:53.839Z,39.6
2019-04-16T20:14:50.448Z,39.4
2019-04-16T20:19:47.446Z,38.8
2019-04-16T20:24:44.087Z,38.4
2019-04-16T20:29:40.982Z,37.8
2019-04-16T20:34:37.320Z,37.9
2019-04-16T20:39:33.842Z,37.5
2019-04-16T20:44:30.542Z,37.8
2019-04-16T20:49:26.509Z,38.1
2019-04-16T20:54:23.328Z,37.8
2019-04-16T20:59:19.953Z,37.3
2019-04-16T21:04:16.295Z,37.6
2019-04-16T21:09:13.065Z,37.1
2019-04-16T21:14:09.679Z,37
2019-04-16T21:19:21.582Z,37.2
2019-04-16T21:24:06.545Z,37.2
2019-04-16T21:29:01.964Z,36.7
2019-04-16T21:33:55.895Z,37
2019-04-16T21:38:52.372Z,36.8
2019-04-16T21:43:49.009Z,37
2019-04-16T21:48:45.498Z,37
2019-04-16T21:53:42.123Z,37.1
2019-04-16T21:58:38.826Z,36.8
2019-04-16T22:03:35.363Z,37
2019-04-16T22:08:32.361Z,37
2019-04-16T22:13:28.782Z,36.2
2019-04-16T22:18:24.819Z,36.5
2019-04-16T22:23:21.506Z,35.9
2019-04-16T22:28:18.155Z,36.1
2019-04-16T22:33:14.894Z,36.4
2019-04-16T22:38:14.246Z,36.1
2019-04-16T22:43:09.042Z,36.2
2019-04-16T22:48:04.565Z,36.4
2019-04-16T22:53:00.929Z,36.2
2019-04-16T22:57:59.781Z,36.3
2019-04-16T23:02:54.095Z,36.2
2019-04-16T23:07:50.574Z,36.1
2019-04-16T23:12:46.872Z,36.5
2019-04-16T23:17:45.950Z,36.5
2019-04-16T23:22:40.217Z,36.9
2019-04-16T23:27:37.393Z,37.3
2019-04-16T23:32:33.943Z,37.2
2019-04-16T23:37:30.321Z,37.5
2019-04-16T23:42:27.098Z,37.6
2019-04-16T23:47:23.691Z,37.5
2019-04-16T23:52:20.449Z,37.7
2019-04-16T23:57:16.749Z,38.3
